Trenton Mercer Airport
KTTN : now visible

Airfield :











YOU CAN JOIN US ON...

 
LOGIN :

Register | Disclaimer

   EN    FR    IT 

 









Legend :    VFR   Marginal VFR   IFR   Intensive IFR   Very Intensive IFR
Visi :
Ceiling :
>= 8 km
>= 3000ft
5 to 8 km
1000 to 3000 ft
1500m to 5 km
500 to 1000 ft
800 to 1500m
200 to 500 ft
< 800m
< 200 ft
Symbols :   Thunderstorms  Fog  Heavy snow  Heavy precipitations  Wind > 20 kt






- Airport Elevation : 213 ft
- IATA code : TTN


KTTN - Trenton Mercer

CURRENT METAR :
  • 251553Z 09019G30KT 10SM -RA OVC006 08/07 A2984 RMK AO2 PK WND 08032/1503 SLP101 P0016 T00780067

EXPIRED METARs :
  • 251535Z 09017G24KT 3SM RA BR OVC007 07/07 A2986 RMK AO2 PK WND 08032/1503 P0016 T00720067
  • 251514Z 09023G29KT 2 1/2SM RA BR OVC006 07/06 A2985 RMK AO2 PK WND 08032/1503 P0006 T00670061
  • 251453Z 09019G29KT 3SM RA BR OVC005 07/06 A2990 RMK AO2 PK WND 08030/1403 SLP121 P0008 60042 T00670061 56030
  • 251353Z 08016G29KT 3SM RA BR OVC006 06/04 A2993 RMK AO2 PK WND 08030/1342 SLP131 P0030 T00560044
  • 251334Z 08018G27KT 2SM +RA BR BKN005 OVC011 05/04 A2996 RMK AO2 PK WND 09029/1323 P0026 T00500044

TAF KTTN
Valid from the 25 at 14:00 until the 26 at 12:00 UTC


251406Z 2514/2612 08014G22KT 3SM -RA BR OVC006 WS020/12045KT
TEMPO 2514/2518 1SM RA BR OVC002
FM251800 VRB04KT 3SM -RA BR OVC005
FM252100 30007KT P6SM BKN012
FM260000 30005KT P6SM BKN040
FM260500 29005KT P6SM BKN100



MET'MAP, your aeronautical weather chart ! - Copyright ORBIFLY December 2007 - Disclaimer

ORBIFLY MET'MAP TEAM :

Programming & Development : Alexandra Zaïnal
Concept & original design : Baudouin d'Aumeries
Assistance for programming : Marc-Olivier Méhu
Technical & hardware support : Manuel Goepfert

Contact : metmap@orbifly.com




SOURCES & CREDITS :

   NOAA       Earth
Advisory